Time;durP1;ratioP1;P1;durP2;ratioP2;P2;SDS_P1;SDS_P2;PMS_P1;PMS_P2;Temp;Humidity;BMP_temperature;BMP_pressure;BME280_temperature;BME280_humidity;BME280_pressure;Samples;Min_cycle;Max_cycle;Signal;HPM_P1;HPM_P2
2022/10/04 00:01:04;;;;;;;3.40;1.70;;;11.90;99.90;;;;;;5074419;28;20208;-81
2022/10/04 00:03:37;;;;;;;3.50;1.52;;;11.90;99.90;;;;;;5074616;28;20209;-80
2022/10/04 00:06:14;;;;;;;1.80;1.30;;;11.90;99.90;;;;;;5074118;28;20224;-80
2022/10/04 00:08:48;;;;;;;2.08;1.55;;;11.90;99.90;;;;;;5074110;28;20200;-81
2022/10/04 00:11:22;;;;;;;1.63;1.52;;;11.90;99.90;;;;;;5074358;28;20207;-81
2022/10/04 00:13:55;;;;;;;4.55;1.83;;;11.90;99.90;;;;;;5074359;28;20212;-80
2022/10/04 00:16:29;;;;;;;1.65;1.55;;;11.90;99.90;;;;;;5073763;28;20225;-81
2022/10/04 00:19:24;;;;;;;1.58;1.45;;;11.80;99.90;;;;;;5073948;28;20212;-80
2022/10/04 00:22:21;;;;;;;2.88;1.48;;;11.80;99.90;;;;;;5073746;28;20213;-81
2022/10/04 00:25:18;;;;;;;11.38;1.83;;;11.90;99.90;;;;;;5073830;28;20216;-80
2022/10/04 00:28:24;;;;;;;1.80;1.27;;;11.90;99.90;;;;;;5073865;28;20225;-79
2022/10/04 00:31:26;;;;;;;12.10;1.58;;;11.90;99.90;;;;;;5073606;28;20201;-80
2022/10/04 00:34:06;;;;;;;1.85;1.67;;;11.90;99.90;;;;;;5074109;28;20200;-80
2022/10/04 00:36:53;;;;;;;1.73;1.10;;;11.90;99.90;;;;;;5073558;28;20227;-80
2022/10/04 00:39:37;;;;;;;2.08;1.33;;;11.80;99.90;;;;;;5073614;28;20244;-81
2022/10/04 00:42:34;;;;;;;1.90;1.70;;;11.90;99.90;;;;;;5073810;28;20209;-80
2022/10/04 00:45:11;;;;;;;1.55;1.30;;;11.90;99.90;;;;;;5073487;28;20209;-80
2022/10/04 00:48:00;;;;;;;1.50;1.40;;;11.80;99.90;;;;;;5072465;28;20244;-80
2022/10/04 00:50:34;;;;;;;3.92;1.42;;;11.90;99.90;;;;;;5073745;28;20211;-80
2022/10/04 00:53:15;;;;;;;2.35;1.60;;;11.90;99.90;;;;;;5073581;28;20209;-81
2022/10/04 00:55:50;;;;;;;2.08;1.73;;;11.90;99.90;;;;;;5073404;28;20220;-81
2022/10/04 00:58:23;;;;;;;1.80;1.65;;;11.90;99.90;;;;;;5073206;28;20208;-80
2022/10/04 01:00:53;;;;;;;1.98;1.65;;;11.90;99.90;;;;;;5073231;28;20205;-80
2022/10/04 01:03:30;;;;;;;2.92;1.98;;;11.90;99.90;;;;;;5073287;28;20205;-81
2022/10/04 01:06:02;;;;;;;2.13;1.23;;;12.00;99.90;;;;;;5072904;28;20208;-79
2022/10/04 01:08:35;;;;;;;4.13;1.50;;;12.00;99.90;;;;;;5072773;28;20217;-80
2022/10/04 01:11:07;;;;;;;2.70;1.98;;;12.00;99.90;;;;;;5072889;28;20231;-80
2022/10/04 01:13:39;;;;;;;1.25;1.25;;;12.00;99.90;;;;;;5072836;28;20267;-80
2022/10/04 01:16:14;;;;;;;1.50;1.35;;;12.00;99.90;;;;;;5072903;28;20205;-80
2022/10/04 01:18:43;;;;;;;1.50;1.40;;;12.10;99.90;;;;;;5072864;28;20200;-80
2022/10/04 01:21:27;;;;;;;1.65;1.55;;;12.10;99.90;;;;;;5072898;28;20208;-80
2022/10/04 01:24:21;;;;;;;1.52;1.42;;;12.10;99.90;;;;;;5073232;28;20204;-80
2022/10/04 01:26:49;;;;;;;3.25;1.40;;;12.10;99.90;;;;;;5072495;28;20236;-80
2022/10/04 01:29:24;;;;;;;2.30;1.75;;;12.10;99.90;;;;;;5072590;28;20207;-80
2022/10/04 01:31:54;;;;;;;1.70;1.48;;;12.10;99.90;;;;;;5072899;28;20208;-81
2022/10/04 01:34:24;;;;;;;1.50;1.40;;;12.10;99.90;;;;;;5073154;28;20243;-81
2022/10/04 01:36:55;;;;;;;2.75;1.65;;;12.10;99.90;;;;;;5072995;28;20223;-81
2022/10/04 01:39:26;;;;;;;2.15;1.65;;;12.10;99.90;;;;;;5072778;28;20205;-81
2022/10/04 01:42:00;;;;;;;1.80;1.70;;;12.10;99.90;;;;;;5073194;28;20201;-81
2022/10/04 01:44:34;;;;;;;1.48;1.35;;;12.10;99.90;;;;;;5072905;28;20208;-81
2022/10/04 01:47:06;;;;;;;1.40;1.30;;;12.00;99.90;;;;;;5072657;28;20229;-80
2022/10/04 01:49:38;;;;;;;1.60;1.50;;;12.00;99.90;;;;;;5072435;28;20232;-80
2022/10/04 01:52:09;;;;;;;2.72;1.77;;;12.00;99.90;;;;;;5072631;28;20205;-80
2022/10/04 01:54:42;;;;;;;2.38;1.45;;;12.00;99.90;;;;;;5072702;28;20221;-80
2022/10/04 01:57:16;;;;;;;2.25;1.73;;;12.00;99.90;;;;;;5072852;28;20233;-81
2022/10/04 01:59:50;;;;;;;3.08;1.70;;;11.90;99.90;;;;;;5073408;28;20204;-82
2022/10/04 02:02:25;;;;;;;3.28;1.67;;;11.90;99.90;;;;;;5076753;28;20208;-80
2022/10/04 02:04:57;;;;;;;2.13;1.73;;;11.90;99.90;;;;;;5076966;28;20219;-80
2022/10/04 02:07:28;;;;;;;1.48;1.38;;;11.90;99.90;;;;;;5076026;28;20217;-80
2022/10/04 02:10:04;;;;;;;3.42;1.65;;;11.90;99.90;;;;;;5076383;28;20208;-80
2022/10/04 02:12:35;;;;;;;2.25;1.55;;;11.90;99.90;;;;;;5076515;28;20212;-80
2022/10/04 02:15:08;;;;;;;1.63;1.52;;;11.90;99.90;;;;;;5076609;28;20204;-86
2022/10/04 02:17:41;;;;;;;1.85;1.50;;;11.90;99.90;;;;;;5076297;28;20229;-85
2022/10/04 02:20:16;;;;;;;1.90;1.52;;;11.90;99.90;;;;;;5076450;28;20209;-85
2022/10/04 02:22:46;;;;;;;2.08;1.88;;;11.90;99.90;;;;;;5076297;28;20215;-85
2022/10/04 02:25:19;;;;;;;1.95;1.75;;;11.90;99.90;;;;;;5076399;28;20209;-85
2022/10/04 02:27:51;;;;;;;1.60;1.50;;;11.90;99.90;;;;;;5075875;28;20248;-85
2022/10/04 02:30:20;;;;;;;3.65;1.60;;;11.80;99.90;;;;;;5076345;28;20197;-85
2022/10/04 02:32:58;;;;;;;1.80;1.55;;;11.90;99.90;;;;;;5075991;28;20212;-85
2022/10/04 02:35:29;;;;;;;2.30;1.50;;;11.90;99.90;;;;;;5075907;28;20260;-85
2022/10/04 02:38:10;;;;;;;1.40;1.30;;;11.90;99.90;;;;;;5075990;28;20231;-85
2022/10/04 02:40:47;;;;;;;1.38;1.27;;;11.90;99.90;;;;;;5075890;28;20205;-85
2022/10/04 02:43:25;;;;;;;1.52;1.42;;;11.90;99.90;;;;;;5075783;28;20216;-85
2022/10/04 02:46:01;;;;;;;1.83;1.73;;;11.90;99.90;;;;;;5075495;28;20224;-85
2022/10/04 02:48:36;;;;;;;1.98;1.77;;;11.90;99.90;;;;;;5075527;28;20232;-85
2022/10/04 02:51:16;;;;;;;1.35;1.25;;;11.90;99.90;;;;;;5075674;28;20208;-85
2022/10/04 02:53:53;;;;;;;1.58;1.48;;;11.90;99.90;;;;;;5075965;28;20216;-85
2022/10/04 02:56:24;;;;;;;2.00;1.77;;;11.90;99.90;;;;;;5075529;28;20224;-85
2022/10/04 02:58:53;;;;;;;1.77;1.63;;;11.90;99.90;;;;;;5075305;28;20205;-85
2022/10/04 03:01:27;;;;;;;1.75;1.58;;;11.80;99.90;;;;;;5075669;28;20209;-84
2022/10/04 03:03:56;;;;;;;5.80;1.70;;;11.80;99.90;;;;;;5075654;28;20221;-85
2022/10/04 03:06:31;;;;;;;1.55;1.45;;;11.80;99.90;;;;;;5075368;28;20225;-85
2022/10/04 03:09:02;;;;;;;1.10;1.00;;;11.80;99.90;;;;;;5075020;28;20220;-86
2022/10/04 03:11:36;;;;;;;1.13;1.13;;;11.90;99.90;;;;;;5075117;28;20209;-84
2022/10/04 03:14:09;;;;;;;1.77;1.42;;;11.90;99.90;;;;;;5075118;28;20208;-85
2022/10/04 03:16:41;;;;;;;2.67;1.90;;;11.80;99.90;;;;;;5075276;28;20228;-85
2022/10/04 03:19:10;;;;;;;3.80;2.03;;;11.80;99.90;;;;;;5074998;28;20221;-85
2022/10/04 03:21:42;;;;;;;1.55;1.25;;;11.80;99.90;;;;;;5075418;28;20213;-85
2022/10/04 03:24:18;;;;;;;1.20;1.15;;;11.80;99.90;;;;;;5075309;28;20247;-85
2022/10/04 03:26:51;;;;;;;1.48;1.38;;;11.80;99.90;;;;;;5074759;28;20236;-85
2022/10/04 03:29:23;;;;;;;1.55;1.45;;;11.80;99.90;;;;;;5074722;28;20240;-84
2022/10/04 03:31:57;;;;;;;1.95;1.73;;;11.80;99.90;;;;;;5075132;28;20205;-85
2022/10/04 03:34:34;;;;;;;2.05;1.85;;;11.80;99.90;;;;;;5075126;28;20203;-85
2022/10/04 03:37:03;;;;;;;1.40;1.30;;;11.80;99.90;;;;;;5074881;28;20244;-85
2022/10/04 03:39:34;;;;;;;2.33;2.00;;;11.80;99.90;;;;;;5074640;28;20205;-84
2022/10/04 03:42:09;;;;;;;2.45;1.60;;;11.80;99.90;;;;;;5075119;28;20215;-85
2022/10/04 03:44:38;;;;;;;2.08;1.60;;;11.80;99.90;;;;;;5074344;28;20211;-85
2022/10/04 03:47:11;;;;;;;1.80;1.70;;;11.80;99.90;;;;;;5074309;28;20221;-85
2022/10/04 03:49:41;;;;;;;2.17;1.60;;;11.80;99.90;;;;;;5074196;28;20228;-84
2022/10/04 03:52:18;;;;;;;2.67;1.50;;;11.80;99.90;;;;;;5074542;28;20209;-84
2022/10/04 03:54:47;;;;;;;1.58;1.48;;;11.80;99.90;;;;;;5074905;28;20204;-86
2022/10/04 03:57:16;;;;;;;2.20;1.92;;;11.80;99.90;;;;;;5074091;28;20235;-86
2022/10/04 03:59:45;;;;;;;2.42;1.95;;;11.80;99.90;;;;;;5074124;28;20202;-86
2022/10/04 04:02:19;;;;;;;10.93;1.75;;;11.80;99.90;;;;;;5074359;28;20213;-86
2022/10/04 04:04:56;;;;;;;2.03;1.60;;;11.80;99.90;;;;;;5074474;28;20208;-85
2022/10/04 04:07:29;;;;;;;1.80;1.70;;;11.80;99.90;;;;;;5074723;28;20232;-85
2022/10/04 04:10:05;;;;;;;1.60;1.45;;;11.80;99.90;;;;;;5073795;28;20252;-85
2022/10/04 04:12:40;;;;;;;4.13;1.70;;;11.80;99.90;;;;;;5074195;28;20208;-85
2022/10/04 04:15:11;;;;;;;1.75;1.40;;;11.80;99.90;;;;;;5073832;28;20204;-85
2022/10/04 04:17:42;;;;;;;1.35;1.25;;;11.80;99.90;;;;;;5074127;28;20233;-86
2022/10/04 04:20:29;;;;;;;2.22;1.58;;;11.80;99.90;;;;;;5074085;28;20204;-85
2022/10/04 04:23:02;;;;;;;2.50;1.98;;;11.80;99.90;;;;;;5073185;28;20201;-85
2022/10/04 04:25:34;;;;;;;2.70;1.60;;;11.80;99.90;;;;;;5073724;28;20205;-85
2022/10/04 04:28:13;;;;;;;2.35;1.80;;;11.80;99.90;;;;;;5073591;28;20247;-85
2022/10/04 04:30:45;;;;;;;2.40;1.92;;;11.80;99.90;;;;;;5073664;28;20213;-85
2022/10/04 04:33:21;;;;;;;3.97;2.17;;;11.80;99.90;;;;;;5073808;28;20213;-85
2022/10/04 04:35:55;;;;;;;3.00;1.70;;;11.80;99.90;;;;;;5073602;28;20216;-85
2022/10/04 04:38:25;;;;;;;1.60;1.42;;;11.80;99.90;;;;;;5073684;28;20212;-85
2022/10/04 04:40:54;;;;;;;5.00;2.03;;;11.80;99.90;;;;;;5073567;28;20213;-85
2022/10/04 04:43:27;;;;;;;1.80;1.70;;;11.80;99.90;;;;;;5073570;28;20290;-85
2022/10/04 04:45:58;;;;;;;2.72;1.77;;;11.80;99.90;;;;;;5073666;28;20211;-84
2022/10/04 04:48:49;;;;;;;1.98;1.73;;;11.80;99.90;;;;;;5073056;28;20221;-85
2022/10/04 04:51:20;;;;;;;2.42;2.03;;;11.80;99.90;;;;;;5073280;28;20205;-84
2022/10/04 04:53:50;;;;;;;3.33;1.98;;;11.80;99.90;;;;;;5073075;28;20216;-84
2022/10/04 04:56:22;;;;;;;2.10;1.90;;;11.80;99.90;;;;;;5073063;28;20225;-85
2022/10/04 04:58:55;;;;;;;2.28;2.08;;;11.80;99.90;;;;;;5073336;28;20205;-85
2022/10/04 05:01:28;;;;;;;2.13;1.92;;;11.70;99.90;;;;;;5073142;28;20216;-86
2022/10/04 05:04:01;;;;;;;2.13;1.73;;;11.80;99.90;;;;;;5072966;28;20247;-85
2022/10/04 05:06:31;;;;;;;3.13;1.83;;;11.80;99.90;;;;;;5073096;28;20228;-85
2022/10/04 05:09:00;;;;;;;2.65;1.63;;;11.80;99.90;;;;;;5072830;28;20220;-85
2022/10/04 05:11:31;;;;;;;2.15;1.75;;;11.80;99.90;;;;;;5073317;28;20209;-85
2022/10/04 05:14:05;;;;;;;5.40;1.58;;;11.80;99.90;;;;;;5073022;28;20209;-84
2022/10/04 05:16:40;;;;;;;5.57;2.20;;;11.80;99.90;;;;;;5072956;28;20236;-86
2022/10/04 05:19:15;;;;;;;2.90;2.13;;;11.70;99.90;;;;;;5072656;28;20292;-84
2022/10/04 05:21:46;;;;;;;2.13;1.58;;;11.80;99.90;;;;;;5073287;28;20219;-85
2022/10/04 05:24:22;;;;;;;2.35;1.98;;;11.80;99.90;;;;;;5073316;28;20256;-85
2022/10/04 05:26:52;;;;;;;1.70;1.30;;;11.80;99.90;;;;;;5072895;28;20244;-85
2022/10/04 05:29:31;;;;;;;1.88;1.60;;;11.80;99.90;;;;;;5072370;28;20229;-84
2022/10/04 05:32:24;;;;;;;2.45;1.85;;;11.80;99.90;;;;;;5072743;28;20204;-86
2022/10/04 05:34:53;;;;;;;12.38;1.70;;;11.80;99.90;;;;;;5072660;28;20208;-85
2022/10/04 05:37:41;;;;;;;1.90;1.48;;;11.80;99.90;;;;;;5072756;28;20221;-85
2022/10/04 05:40:27;;;;;;;3.97;1.95;;;11.80;99.90;;;;;;5072756;28;20216;-85
2022/10/04 05:42:58;;;;;;;3.58;2.00;;;11.90;99.90;;;;;;5072934;28;20204;-85
2022/10/04 05:45:30;;;;;;;2.15;1.90;;;11.80;99.90;;;;;;5072662;28;20209;-85
2022/10/04 05:48:02;;;;;;;3.63;1.95;;;11.90;99.90;;;;;;5072388;28;20233;-85
2022/10/04 05:50:34;;;;;;;1.67;1.58;;;11.90;99.90;;;;;;5072192;28;20236;-85
2022/10/04 05:53:23;;;;;;;5.43;1.65;;;11.90;99.90;;;;;;5072703;28;20205;-85
2022/10/04 05:56:00;;;;;;;4.40;2.17;;;11.90;99.90;;;;;;5072413;28;20216;-85
2022/10/04 05:58:50;;;;;;;26.17;2.15;;;11.90;99.90;;;;;;5072162;28;20208;-85
2022/10/04 06:01:31;;;;;;;7.78;2.38;;;11.90;99.90;;;;;;5072835;28;20208;-85
2022/10/04 06:04:26;;;;;;;2.15;1.95;;;11.90;99.90;;;;;;5072670;28;20288;-85
2022/10/04 06:06:59;;;;;;;2.20;2.00;;;11.90;99.90;;;;;;5066396;28;20225;-85
2022/10/04 06:09:50;;;;;;;1.67;1.58;;;12.00;99.90;;;;;;5072147;28;20237;-85
2022/10/04 06:12:32;;;;;;;10.68;1.98;;;12.00;99.90;;;;;;5072803;28;20209;-85
2022/10/04 06:15:35;;;;;;;2.00;1.77;;;12.00;99.90;;;;;;5072944;28;20212;-85
2022/10/04 06:18:21;;;;;;;1.75;1.65;;;12.00;99.90;;;;;;5072488;28;20229;-85
2022/10/04 06:21:09;;;;;;;2.35;1.85;;;12.00;99.90;;;;;;5072115;28;20209;-84
2022/10/04 06:23:45;;;;;;;2.45;2.13;;;12.00;99.90;;;;;;5072168;28;20213;-85
2022/10/04 06:26:20;;;;;;;2.30;2.10;;;12.10;99.90;;;;;;5072214;28;20243;-86
2022/10/04 06:28:53;;;;;;;2.42;1.90;;;12.10;99.90;;;;;;5072221;28;20212;-85
2022/10/04 06:31:52;;;;;;;2.53;2.33;;;12.00;99.90;;;;;;5072151;28;20205;-84
2022/10/04 06:34:55;;;;;;;4.07;1.98;;;12.00;99.90;;;;;;5072449;28;20209;-86
2022/10/04 06:37:45;;;;;;;2.45;2.00;;;12.10;99.90;;;;;;5071946;28;20252;-85
2022/10/04 06:41:05;;;;;;;1.95;1.83;;;12.10;99.90;;;;;;5071914;28;20209;-85
2022/10/04 06:43:50;;;;;;;2.17;1.98;;;12.10;99.90;;;;;;4991085;28;20234;-85
2022/10/04 06:46:25;;;;;;;1.95;1.80;;;12.10;99.90;;;;;;4992877;28;20235;-84
2022/10/04 06:49:26;;;;;;;2.05;1.88;;;12.10;99.90;;;;;;5054759;28;20205;-84
2022/10/04 06:52:39;;;;;;;6.68;2.08;;;12.20;99.90;;;;;;5069131;28;20201;-84
2022/10/04 06:55:34;;;;;;;4.78;2.00;;;12.20;99.90;;;;;;5060646;28;20220;-86
2022/10/04 06:58:33;;;;;;;2.55;2.15;;;12.20;99.90;;;;;;5075557;28;20240;-84
2022/10/04 07:01:07;;;;;;;2.45;1.88;;;12.20;99.90;;;;;;5069179;28;20205;-85
2022/10/04 07:03:41;;;;;;;2.22;1.70;;;12.30;99.90;;;;;;5075842;28;20235;-84
2022/10/04 07:06:10;;;;;;;2.40;2.20;;;12.30;99.90;;;;;;5075355;28;20200;-85
2022/10/04 07:08:46;;;;;;;2.47;2.25;;;12.30;99.90;;;;;;5075268;28;20201;-85
2022/10/04 07:11:21;;;;;;;3.17;1.98;;;12.30;99.90;;;;;;5074946;28;20308;-85
2022/10/04 07:13:55;;;;;;;4.72;2.38;;;12.30;99.90;;;;;;5075250;28;20208;-85
2022/10/04 07:16:36;;;;;;;4.05;2.10;;;12.30;99.90;;;;;;5074892;28;20236;-85
2022/10/04 07:19:30;;;;;;;3.55;2.30;;;12.30;99.90;;;;;;5074739;28;20212;-85
2022/10/04 07:22:11;;;;;;;2.75;2.03;;;12.40;99.90;;;;;;5069074;28;20216;-85
2022/10/04 07:24:52;;;;;;;2.58;1.73;;;12.40;99.90;;;;;;5075119;28;20260;-85
2022/10/04 07:27:30;;;;;;;4.13;2.25;;;12.40;99.90;;;;;;5075322;28;20232;-85
2022/10/04 07:30:00;;;;;;;1.98;1.70;;;12.50;99.90;;;;;;5074709;28;20216;-85
2022/10/04 07:32:30;;;;;;;1.63;1.52;;;12.50;99.90;;;;;;5075097;28;20201;-85
2022/10/04 07:35:04;;;;;;;3.22;2.05;;;12.60;99.90;;;;;;5075460;28;20225;-85
2022/10/04 07:37:45;;;;;;;2.50;1.90;;;12.60;99.90;;;;;;5074798;28;20229;-85
2022/10/04 07:40:22;;;;;;;3.05;2.25;;;12.60;99.90;;;;;;5074492;28;20201;-85
2022/10/04 07:42:58;;;;;;;2.08;1.73;;;12.70;99.90;;;;;;5074889;28;20205;-85
2022/10/04 07:45:31;;;;;;;3.03;2.00;;;12.70;99.90;;;;;;5074825;28;20273;-85
2022/10/04 07:48:10;;;;;;;2.03;1.90;;;12.90;99.90;;;;;;5074931;28;20233;-85
2022/10/04 07:50:45;;;;;;;2.50;1.98;;;12.90;99.90;;;;;;5074101;28;20224;-85
2022/10/04 07:53:18;;;;;;;1.75;1.55;;;13.00;99.90;;;;;;5074727;28;20205;-85
2022/10/04 07:55:55;;;;;;;6.95;2.65;;;13.10;99.90;;;;;;5074325;28;20209;-85
2022/10/04 07:58:42;;;;;;;2.33;1.85;;;13.20;99.90;;;;;;5073633;28;20212;-85
2022/10/04 08:01:25;;;;;;;2.40;2.00;;;13.30;99.90;;;;;;5074562;28;20205;-84
2022/10/04 08:04:27;;;;;;;4.45;2.35;;;13.40;99.90;;;;;;5074427;28;20270;-85
2022/10/04 08:06:59;;;;;;;2.83;1.98;;;13.60;99.90;;;;;;5074406;28;20224;-86
2022/10/04 08:09:39;;;;;;;2.65;1.98;;;13.70;99.90;;;;;;5073987;28;20208;-86
2022/10/04 08:12:18;;;;;;;2.85;1.83;;;13.70;99.90;;;;;;5074265;28;20224;-85
2022/10/04 08:14:55;;;;;;;8.05;2.20;;;13.70;99.90;;;;;;5074547;28;20201;-85
2022/10/04 08:17:40;;;;;;;4.82;1.65;;;13.70;99.90;;;;;;5074098;28;20248;-85
2022/10/04 08:20:26;;;;;;;3.78;2.05;;;13.90;99.90;;;;;;5073740;28;20212;-85
2022/10/04 08:23:06;;;;;;;4.15;2.17;;;14.00;99.90;;;;;;5073901;28;20209;-85
2022/10/04 08:25:45;;;;;;;1.67;1.50;;;14.10;99.90;;;;;;5074284;28;20227;-85
2022/10/04 08:31:24;;;;;;;2.53;1.73;;;14.10;99.90;;;;;;5073802;28;20224;-85
2022/10/04 08:34:20;;;;;;;2.70;1.80;;;14.10;99.90;;;;;;5073589;28;20201;-85
2022/10/04 08:37:01;;;;;;;2.50;1.65;;;14.20;99.90;;;;;;5074241;28;20232;-85
2022/10/04 08:39:48;;;;;;;1.55;1.45;;;14.20;99.90;;;;;;5073569;28;20211;-85
2022/10/04 08:42:59;;;;;;;2.08;1.70;;;14.20;99.90;;;;;;5073628;28;20205;-86
2022/10/04 08:46:08;;;;;;;1.67;1.52;;;14.20;99.90;;;;;;5071015;28;20216;-86
2022/10/04 08:49:16;;;;;;;3.10;2.25;;;14.20;99.90;;;;;;5073214;28;20209;-85
2022/10/04 08:52:12;;;;;;;1.63;1.52;;;14.30;99.90;;;;;;5073179;28;20232;-85
2022/10/04 08:55:12;;;;;;;4.22;1.33;;;14.20;99.90;;;;;;5073582;28;20205;-86
2022/10/04 08:58:05;;;;;;;2.47;1.65;;;14.30;99.90;;;;;;5073433;28;20256;-85
2022/10/04 09:00:48;;;;;;;2.45;1.80;;;14.40;99.90;;;;;;5072946;28;20243;-85
2022/10/04 09:03:47;;;;;;;2.03;1.83;;;14.50;99.90;;;;;;5073261;28;20209;-85
2022/10/04 09:06:42;;;;;;;1.67;1.58;;;14.50;99.90;;;;;;5073033;28;20228;-85
2022/10/04 09:09:45;;;;;;;2.28;1.70;;;14.60;99.90;;;;;;5072762;28;20250;-85
2022/10/04 09:12:46;;;;;;;5.82;1.75;;;14.60;99.90;;;;;;5070578;28;20225;-85
2022/10/04 09:15:26;;;;;;;1.77;1.67;;;14.60;99.90;;;;;;5073123;28;20224;-85
2022/10/04 09:18:01;;;;;;;12.00;1.88;;;14.60;99.90;;;;;;5072879;28;20233;-85
2022/10/04 09:20:45;;;;;;;1.40;1.30;;;14.60;99.90;;;;;;5072893;28;20209;-85
2022/10/04 09:23:50;;;;;;;2.05;1.33;;;14.70;99.90;;;;;;5072984;28;20207;-86
2022/10/04 09:26:22;;;;;;;2.05;1.70;;;14.80;99.90;;;;;;5036943;28;20255;-85
2022/10/04 09:29:15;;;;;;;4.78;1.95;;;14.90;99.90;;;;;;5072652;28;20209;-85
2022/10/04 09:32:06;;;;;;;2.25;2.05;;;15.00;99.90;;;;;;5072976;28;20229;-85
2022/10/04 09:34:50;;;;;;;2.13;1.77;;;15.10;99.90;;;;;;5072848;28;20209;-85
2022/10/04 09:37:38;;;;;;;2.22;1.80;;;15.10;99.90;;;;;;5072719;28;20228;-85
2022/10/04 09:40:51;;;;;;;3.75;2.47;;;15.30;99.90;;;;;;5072560;28;20212;-85
2022/10/04 09:43:53;;;;;;;2.70;2.05;;;15.60;99.90;;;;;;5072823;28;20208;-85
2022/10/04 09:46:40;;;;;;;2.75;2.35;;;15.70;99.90;;;;;;5030217;28;20224;-85
2022/10/04 09:49:31;;;;;;;2.92;1.48;;;16.00;99.90;;;;;;5072418;28;20217;-85
2022/10/04 09:52:16;;;;;;;2.08;1.70;;;16.30;99.90;;;;;;5072312;28;20233;-85
2022/10/04 09:55:09;;;;;;;1.95;1.83;;;16.30;99.90;;;;;;5072741;28;20201;-85
2022/10/04 09:57:54;;;;;;;3.10;2.00;;;16.60;99.90;;;;;;5072620;28;20229;-86
2022/10/04 10:00:23;;;;;;;2.63;1.70;;;16.70;99.90;;;;;;5072435;28;20201;-84
2022/10/04 10:03:19;;;;;;;8.45;1.92;;;16.90;99.90;;;;;;5072779;28;20228;-87
2022/10/04 10:06:45;;;;;;;1.60;1.50;;;17.50;99.90;;;;;;5072456;28;20205;-86
2022/10/04 10:13:38;;;;;;;2.53;1.63;;;18.20;99.90;;;;;;4990333;28;20214;-86
2022/10/04 10:15:35;;;;;;;1.92;1.73;;;18.30;99.90;;;;;;5071322;28;20201;-86
2022/10/04 10:18:14;;;;;;;2.60;2.17;;;18.80;99.90;;;;;;5072124;28;20236;-86
2022/10/04 10:21:00;;;;;;;1.85;1.75;;;19.30;99.90;;;;;;5072988;28;20205;-86
2022/10/04 10:23:45;;;;;;;2.05;1.73;;;19.60;99.90;;;;;;5076365;28;20213;-86
2022/10/04 10:26:29;;;;;;;1.75;1.60;;;19.80;99.90;;;;;;5076415;28;20278;-86
2022/10/04 10:29:25;;;;;;;1.85;1.52;;;19.80;99.90;;;;;;5076302;28;20212;-86
2022/10/04 10:32:09;;;;;;;1.23;1.13;;;19.80;99.90;;;;;;5075803;28;20282;-86
2022/10/04 10:35:14;;;;;;;2.53;1.65;;;20.10;99.90;;;;;;5076104;28;20205;-84
2022/10/04 10:37:58;;;;;;;2.85;1.60;;;20.30;99.90;;;;;;5076099;28;20232;-85
2022/10/04 10:41:02;;;;;;;1.60;1.50;;;19.60;99.90;;;;;;5075939;28;20256;-84
2022/10/04 10:43:45;;;;;;;2.13;1.50;;;18.90;99.90;;;;;;5075810;28;20223;-85
2022/10/04 10:46:24;;;;;;;5.75;1.80;;;18.60;99.90;;;;;;5075640;28;20312;-85
2022/10/04 10:49:31;;;;;;;3.22;1.70;;;18.60;99.90;;;;;;5075363;28;20220;-85
2022/10/04 10:52:32;;;;;;;2.30;1.60;;;18.50;99.90;;;;;;5075866;28;20220;-85
2022/10/04 10:55:25;;;;;;;3.72;1.60;;;18.30;99.90;;;;;;5075858;28;20212;-85
2022/10/04 10:58:33;;;;;;;5.15;1.90;;;18.60;99.90;;;;;;5075219;28;20241;-86
2022/10/04 11:01:20;;;;;;;1.92;1.33;;;19.00;99.90;;;;;;5075681;28;20219;-85
2022/10/04 11:04:18;;;;;;;4.80;1.40;;;19.70;99.90;;;;;;5075660;28;20209;-85
2022/10/04 11:07:21;;;;;;;2.67;1.92;;;20.00;99.90;;;;;;5075349;28;20278;-85
2022/10/04 11:10:04;;;;;;;1.60;1.50;;;20.20;99.90;;;;;;5075343;28;20213;-85
2022/10/04 11:13:10;;;;;;;1.92;1.52;;;20.30;99.90;;;;;;5075170;28;20232;-86
2022/10/04 11:16:21;;;;;;;1.45;1.27;;;19.90;99.90;;;;;;5075404;28;20204;-86
2022/10/04 11:19:27;;;;;;;2.15;1.42;;;19.70;99.90;;;;;;5059999;28;20201;-86
2022/10/04 11:22:29;;;;;;;2.33;1.95;;;19.80;99.90;;;;;;5075103;28;20204;-86
2022/10/04 11:25:28;;;;;;;1.75;1.52;;;20.10;99.90;;;;;;5075112;28;20209;-86
2022/10/04 11:28:04;;;;;;;2.05;1.38;;;19.80;99.90;;;;;;5074889;28;20232;-86
2022/10/04 11:30:52;;;;;;;3.28;1.90;;;19.70;99.90;;;;;;5075039;28;20243;-85
2022/10/04 11:33:53;;;;;;;1.65;1.55;;;20.10;99.90;;;;;;5074243;28;20225;-85
2022/10/04 11:36:38;;;;;;;2.08;1.70;;;20.50;99.90;;;;;;5074792;28;20229;-85
2022/10/04 11:39:37;;;;;;;1.48;1.38;;;20.20;99.90;;;;;;5074591;28;20209;-86
2022/10/04 11:42:25;;;;;;;2.80;1.45;;;20.30;99.90;;;;;;5074974;28;20220;-85
2022/10/04 11:45:18;;;;;;;2.15;1.48;;;19.80;99.90;;;;;;5075333;28;20205;-85
2022/10/04 11:48:01;;;;;;;1.95;1.50;;;19.50;99.90;;;;;;5074384;28;20229;-85
2022/10/04 11:50:39;;;;;;;4.65;1.67;;;19.10;99.90;;;;;;5074500;28;20212;-85
2022/10/04 11:53:39;;;;;;;1.67;1.48;;;18.50;99.90;;;;;;5074155;28;20232;-84
2022/10/04 11:56:32;;;;;;;2.22;1.50;;;18.30;99.90;;;;;;5074513;28;20200;-86
2022/10/04 11:59:16;;;;;;;2.47;1.80;;;18.00;99.90;;;;;;5074150;28;20216;-85
2022/10/04 12:02:18;;;;;;;1.98;1.50;;;18.40;99.90;;;;;;5074440;28;20212;-85
2022/10/04 12:05:12;;;;;;;1.48;1.33;;;18.70;99.90;;;;;;5074345;28;20208;-85
2022/10/04 12:07:50;;;;;;;2.22;1.73;;;19.30;99.90;;;;;;5074293;28;20228;-85
2022/10/04 12:10:23;;;;;;;2.88;1.77;;;19.30;99.90;;;;;;5074287;28;20209;-85
2022/10/04 12:13:23;;;;;;;1.67;1.55;;;19.20;99.90;;;;;;5074542;28;20225;-85
2022/10/04 12:16:11;;;;;;;1.30;1.20;;;19.40;99.90;;;;;;5073902;28;20212;-85
2022/10/04 12:19:08;;;;;;;1.40;1.30;;;19.60;99.90;;;;;;5074120;28;20197;-85
2022/10/04 12:21:57;;;;;;;1.48;1.35;;;20.30;99.90;;;;;;5030878;28;20231;-85
2022/10/04 12:24:50;;;;;;;1.40;1.30;;;20.60;99.90;;;;;;5074401;28;20211;-85
2022/10/04 12:27:33;;;;;;;1.77;1.67;;;20.60;99.90;;;;;;5073885;28;20240;-85
2022/10/04 12:30:35;;;;;;;3.92;1.83;;;20.60;99.90;;;;;;5074253;28;20223;-85
2022/10/04 12:33:14;;;;;;;1.95;1.50;;;20.70;99.90;;;;;;5030776;28;20225;-85
2022/10/04 12:35:56;;;;;;;1.70;1.60;;;20.70;99.90;;;;;;5073922;28;20209;-85
2022/10/04 12:38:40;;;;;;;1.83;1.40;;;20.70;99.90;;;;;;5073834;28;20201;-85
2022/10/04 12:41:17;;;;;;;1.45;1.35;;;20.40;99.90;;;;;;5073671;28;20209;-85
2022/10/04 12:43:55;;;;;;;2.17;1.83;;;20.50;99.90;;;;;;5072954;28;20209;-85
2022/10/04 12:46:36;;;;;;;1.73;1.23;;;20.70;99.90;;;;;;5073640;28;20237;-86
2022/10/04 12:49:26;;;;;;;1.60;1.50;;;20.60;99.90;;;;;;5073191;28;20209;-85
2022/10/04 12:52:03;;;;;;;1.50;1.40;;;20.20;99.90;;;;;;5073289;28;20216;-85
2022/10/04 12:54:39;;;;;;;4.45;1.63;;;19.70;99.90;;;;;;5073492;28;20224;-85
2022/10/04 12:57:33;;;;;;;3.20;1.73;;;19.70;99.90;;;;;;5073644;28;20224;-86
2022/10/04 13:00:14;;;;;;;2.33;1.50;;;19.90;99.90;;;;;;5070962;28;20214;-86
2022/10/04 13:03:23;;;;;;;1.40;1.20;;;20.10;99.90;;;;;;5073446;28;20209;-86
2022/10/04 13:06:01;;;;;;;2.55;1.58;;;20.50;99.90;;;;;;5070335;28;20236;-86
2022/10/04 13:08:46;;;;;;;1.25;1.02;;;20.60;99.90;;;;;;5073576;28;20208;-85
2022/10/04 13:11:35;;;;;;;1.77;1.52;;;20.40;99.90;;;;;;5073007;28;20208;-85
2022/10/04 13:14:39;;;;;;;2.55;1.88;;;20.40;99.90;;;;;;5073230;28;20311;-85
2022/10/04 13:17:16;;;;;;;2.17;1.42;;;20.10;99.90;;;;;;5050590;28;20228;-86
2022/10/04 13:20:20;;;;;;;1.63;1.10;;;19.90;99.90;;;;;;5072265;28;20227;-85
2022/10/04 13:22:55;;;;;;;1.42;1.33;;;19.50;99.90;;;;;;5072842;28;20205;-86
2022/10/04 13:25:45;;;;;;;1.65;1.42;;;19.30;99.90;;;;;;5073070;28;20266;-86
2022/10/04 13:28:22;;;;;;;1.63;1.35;;;19.20;99.90;;;;;;5073112;28;20236;-85
2022/10/04 13:30:57;;;;;;;1.45;1.35;;;19.10;99.90;;;;;;5073197;28;20262;-86
2022/10/04 13:33:33;;;;;;;1.30;1.20;;;19.10;99.90;;;;;;5072628;28;20220;-86
2022/10/04 13:36:08;;;;;;;1.35;1.20;;;19.10;99.90;;;;;;5072603;28;20207;-85
2022/10/04 13:39:02;;;;;;;1.75;1.55;;;19.20;99.90;;;;;;5072987;28;20205;-86
2022/10/04 13:41:48;;;;;;;1.63;1.52;;;19.60;99.90;;;;;;5072923;28;20205;-85
2022/10/04 13:44:42;;;;;;;1.73;1.50;;;19.60;99.90;;;;;;5072634;28;20204;-85
2022/10/04 13:47:37;;;;;;;1.95;1.23;;;19.80;99.90;;;;;;5072807;28;20224;-86
2022/10/04 13:50:26;;;;;;;1.35;1.20;;;19.90;99.90;;;;;;5072507;28;20209;-86
2022/10/04 13:58:53;;;;;;;1.45;1.35;;;20.40;99.90;;;;;;5078750;28;20216;-85
2022/10/04 14:01:52;;;;;;;2.28;1.42;;;20.70;99.90;;;;;;5079388;28;20216;-86
2022/10/04 14:04:45;;;;;;;3.00;1.20;;;20.80;99.90;;;;;;5079691;28;20196;-86
2022/10/04 14:07:46;;;;;;;5.50;1.90;;;21.10;99.90;;;;;;5046215;28;20220;-86
2022/10/04 14:10:37;;;;;;;3.28;1.73;;;21.40;99.90;;;;;;5078657;28;20223;-86
2022/10/04 14:13:36;;;;;;;2.95;1.52;;;21.60;99.90;;;;;;5078860;28;20236;-86
2022/10/04 14:16:37;;;;;;;1.45;1.35;;;21.90;99.90;;;;;;5079229;28;20212;-85